Time;durP1;ratioP1;P1;durP2;ratioP2;P2;SDS_P1;SDS_P2;PMS_P1;PMS_P2;Temp;Humidity;BMP_temperature;BMP_pressure;BME280_temperature;BME280_humidity;BME280_pressure;Samples;Min_cycle;Max_cycle;Signal;HPM_P1;HPM_P2
2022/06/12 00:00:14;;;;;;;12.50;6.57;;;18.70;99.90;;;;;;4916783;29;20251;-73
2022/06/12 00:02:42;;;;;;;9.40;6.70;;;18.60;99.90;;;;;;4916734;29;20179;-73
2022/06/12 00:05:09;;;;;;;7.77;6.37;;;18.60;99.90;;;;;;4916768;29;20571;-73
2022/06/12 00:07:34;;;;;;;10.20;6.90;;;18.60;99.90;;;;;;4916736;29;20423;-73
2022/06/12 00:10:00;;;;;;;9.60;6.77;;;18.60;99.90;;;;;;4916788;29;20611;-73
2022/06/12 00:12:26;;;;;;;12.07;6.00;;;18.50;99.90;;;;;;4916633;29;20204;-73
2022/06/12 00:14:51;;;;;;;9.70;6.13;;;18.50;99.90;;;;;;4916831;29;20183;-74
2022/06/12 00:17:17;;;;;;;9.93;6.60;;;18.50;99.90;;;;;;4916499;29;20270;-73
2022/06/12 00:19:44;;;;;;;11.27;5.17;;;18.50;99.90;;;;;;4916721;29;20674;-73
2022/06/12 00:22:11;;;;;;;8.30;5.67;;;18.50;99.90;;;;;;4916729;29;20179;-73
2022/06/12 00:24:37;;;;;;;11.67;6.30;;;18.50;99.90;;;;;;4916608;29;20498;-73
2022/06/12 00:27:04;;;;;;;10.10;6.63;;;18.50;99.90;;;;;;4916628;29;20432;-73
2022/06/12 00:29:32;;;;;;;8.33;5.83;;;18.50;99.90;;;;;;4916613;29;20788;-73
2022/06/12 00:32:01;;;;;;;10.93;6.00;;;18.50;99.90;;;;;;4916207;29;20838;-73
2022/06/12 00:34:32;;;;;;;9.27;6.90;;;18.40;99.90;;;;;;4916377;29;20629;-73
2022/06/12 00:36:59;;;;;;;8.77;5.83;;;18.40;99.90;;;;;;4916571;29;20834;-73
2022/06/12 00:39:25;;;;;;;9.07;5.70;;;18.40;99.90;;;;;;4918990;29;20465;-73
2022/06/12 00:41:54;;;;;;;11.53;6.73;;;18.40;99.90;;;;;;4926121;29;20530;-73
2022/06/12 00:44:25;;;;;;;12.90;6.50;;;18.40;99.90;;;;;;4926821;29;20438;-73
2022/06/12 00:47:03;;;;;;;9.90;6.27;;;18.30;99.90;;;;;;4924630;29;20443;-73
2022/06/12 00:49:36;;;;;;;14.03;6.63;;;18.40;99.90;;;;;;4930564;29;20465;-73
2022/06/12 00:52:09;;;;;;;9.47;6.30;;;18.40;99.90;;;;;;4935005;29;20445;-73
2022/06/12 00:54:39;;;;;;;11.33;6.77;;;18.30;99.90;;;;;;4935313;29;20465;-73
2022/06/12 00:57:06;;;;;;;14.23;7.83;;;18.30;99.90;;;;;;4937741;29;20538;-73
2022/06/12 00:59:48;;;;;;;12.60;7.00;;;18.30;99.90;;;;;;4938712;29;20839;-73
2022/06/12 01:02:26;;;;;;;12.77;7.80;;;18.30;99.90;;;;;;4938788;29;20431;-73
2022/06/12 01:07:42;;;;;;;15.13;8.93;;;18.30;99.90;;;;;;4938466;29;20852;-74
2022/06/12 01:10:11;;;;;;;15.93;9.10;;;18.30;99.90;;;;;;4937635;29;20437;-73
2022/06/12 01:12:43;;;;;;;14.23;8.30;;;18.30;99.90;;;;;;4938697;29;20486;-74
2022/06/12 01:15:14;;;;;;;10.30;7.80;;;18.40;99.90;;;;;;4938608;29;20842;-73
2022/06/12 01:17:40;;;;;;;10.73;7.70;;;18.40;99.90;;;;;;4938547;29;20482;-74
2022/06/12 01:20:09;;;;;;;11.80;7.60;;;18.30;99.90;;;;;;4938545;29;20427;-73
2022/06/12 01:22:58;;;;;;;9.80;7.47;;;18.30;99.90;;;;;;4938268;29;20949;-74
2022/06/12 04:32:38;;;;;;;11.47;7.03;;;16.50;99.90;;;;;;4899460;29;20539;-78
2022/06/12 04:35:04;;;;;;;9.03;7.00;;;16.50;99.90;;;;;;4901694;29;20967;-79
2022/06/12 04:37:31;;;;;;;9.50;7.23;;;16.60;99.90;;;;;;4901147;29;20216;-78
2022/06/12 04:39:59;;;;;;;12.90;7.50;;;16.60;99.90;;;;;;4901366;29;20448;-78
2022/06/12 04:42:28;;;;;;;13.50;7.70;;;16.60;99.90;;;;;;4901383;29;20428;-78
2022/06/12 04:44:54;;;;;;;10.07;8.23;;;16.70;99.90;;;;;;4901271;29;20519;-78
2022/06/12 04:47:24;;;;;;;17.73;8.40;;;16.70;99.90;;;;;;4901057;29;20984;-78
2022/06/12 04:49:52;;;;;;;12.87;8.00;;;16.70;99.90;;;;;;4901108;29;20516;-78
2022/06/12 04:52:19;;;;;;;15.43;7.90;;;16.80;99.90;;;;;;4899959;29;20425;-78
2022/06/12 04:54:46;;;;;;;17.63;8.13;;;16.80;99.90;;;;;;4901071;29;20440;-78
2022/06/12 04:57:14;;;;;;;10.40;7.47;;;16.90;99.90;;;;;;4900905;29;20483;-78
2022/06/12 04:59:40;;;;;;;10.97;6.60;;;16.90;99.90;;;;;;4900970;29;20439;-78
2022/06/12 05:02:05;;;;;;;17.07;7.20;;;17.00;99.90;;;;;;4900956;29;20436;-78
2022/06/12 05:04:32;;;;;;;11.50;7.03;;;17.10;99.90;;;;;;4900751;29;20795;-78
2022/06/12 05:06:58;;;;;;;12.77;7.47;;;17.20;99.90;;;;;;4900947;29;20205;-78
2022/06/12 05:09:29;;;;;;;7.80;6.17;;;17.30;99.90;;;;;;4900719;29;20428;-78
2022/06/12 05:11:55;;;;;;;23.03;8.33;;;17.40;99.90;;;;;;4900709;29;20484;-78
2022/06/12 05:14:21;;;;;;;11.00;6.80;;;17.50;99.90;;;;;;4900718;29;20788;-78
2022/06/12 05:16:51;;;;;;;16.10;6.60;;;17.60;99.90;;;;;;4900527;29;20481;-78
2022/06/12 05:19:21;;;;;;;17.93;6.60;;;17.70;99.90;;;;;;4900642;29;20177;-78
2022/06/12 05:21:47;;;;;;;12.73;5.43;;;17.80;99.90;;;;;;4900718;29;20843;-78
2022/06/12 05:24:13;;;;;;;12.80;5.33;;;17.80;99.90;;;;;;4900605;29;20428;-78
2022/06/12 05:26:40;;;;;;;10.70;5.40;;;18.00;99.90;;;;;;4900418;29;20534;-78
2022/06/12 05:29:08;;;;;;;15.90;6.13;;;18.10;99.90;;;;;;4900541;29;20464;-78
2022/06/12 05:31:35;;;;;;;9.73;6.20;;;18.10;99.90;;;;;;4900130;29;20483;-78
2022/06/12 05:34:01;;;;;;;8.83;5.23;;;18.20;99.90;;;;;;4900359;29;20901;-78
2022/06/12 05:36:26;;;;;;;9.27;5.00;;;18.40;99.90;;;;;;4900190;29;20471;-78
2022/06/12 05:38:52;;;;;;;10.17;4.93;;;18.40;99.90;;;;;;4900296;29;20240;-78
2022/06/12 05:41:18;;;;;;;9.50;4.60;;;18.50;99.90;;;;;;4900174;29;20177;-78
2022/06/12 05:43:44;;;;;;;6.37;4.37;;;18.60;99.90;;;;;;4899249;29;20180;-78
2022/06/12 05:46:12;;;;;;;7.87;4.13;;;18.70;99.90;;;;;;4900108;29;20564;-78
2022/06/12 05:48:39;;;;;;;8.67;3.90;;;18.80;99.90;;;;;;4900099;29;20595;-78
2022/06/12 05:51:05;;;;;;;7.60;3.43;;;18.90;99.90;;;;;;4900100;29;20432;-78
2022/06/12 05:53:35;;;;;;;7.13;2.80;;;18.90;99.90;;;;;;4899961;29;20483;-77
2022/06/12 05:56:00;;;;;;;5.43;2.33;;;19.00;99.90;;;;;;4900159;29;20535;-78
2022/06/12 05:58:29;;;;;;;4.60;3.10;;;19.00;99.90;;;;;;4899887;29;20432;-78
2022/06/12 06:00:55;;;;;;;7.27;2.80;;;19.10;99.90;;;;;;4899840;29;20645;-78
2022/06/12 06:03:20;;;;;;;8.00;3.30;;;19.20;99.90;;;;;;4899797;29;20929;-78
2022/06/12 06:05:47;;;;;;;8.27;2.90;;;19.30;99.90;;;;;;4899722;29;20433;-78
2022/06/12 06:08:14;;;;;;;4.57;3.20;;;19.40;99.90;;;;;;4899710;29;20181;-78
2022/06/12 06:10:40;;;;;;;7.00;3.00;;;19.40;99.90;;;;;;4899804;29;20435;-78
2022/06/12 06:13:06;;;;;;;4.40;3.00;;;19.40;99.90;;;;;;4899611;29;20816;-78
2022/06/12 06:15:32;;;;;;;6.43;3.10;;;19.50;99.90;;;;;;4899470;29;20459;-78
2022/06/12 06:17:59;;;;;;;7.80;2.37;;;19.60;99.90;;;;;;4899424;29;20531;-78
2022/06/12 06:20:29;;;;;;;6.60;2.37;;;19.60;99.90;;;;;;4899451;29;20456;-77
2022/06/12 06:22:55;;;;;;;9.30;2.60;;;19.60;99.90;;;;;;4899417;29;20433;-77
2022/06/12 06:25:22;;;;;;;7.57;2.43;;;19.70;99.90;;;;;;4898409;29;20845;-78
2022/06/12 06:27:48;;;;;;;8.20;2.13;;;19.70;99.90;;;;;;4898550;29;20437;-75
2022/06/12 06:30:14;;;;;;;7.60;2.53;;;19.90;99.90;;;;;;4898198;29;20515;-76
2022/06/12 06:32:41;;;;;;;7.07;2.90;;;20.00;99.90;;;;;;4898349;29;20267;-77
2022/06/12 06:35:08;;;;;;;5.50;1.90;;;20.10;99.90;;;;;;4900850;29;20436;-77
2022/06/12 06:37:34;;;;;;;9.23;2.40;;;20.10;99.90;;;;;;4898092;29;20484;-76
2022/06/12 06:40:00;;;;;;;4.53;1.77;;;20.00;99.90;;;;;;4898374;29;20429;-77
2022/06/12 06:42:26;;;;;;;5.53;1.80;;;20.10;99.90;;;;;;4898137;29;20480;-79
2022/06/12 06:47:37;;;;;;;3.73;1.87;;;20.20;99.90;;;;;;4898479;29;20208;-79
2022/06/12 06:50:08;;;;;;;5.83;2.00;;;20.20;99.90;;;;;;4898092;29;20425;-82
2022/06/12 06:52:34;;;;;;;5.10;1.67;;;20.30;99.90;;;;;;4898038;29;20512;-80
2022/06/12 06:54:59;;;;;;;9.57;2.17;;;20.30;99.90;;;;;;4897885;29;20507;-78
2022/06/12 06:57:25;;;;;;;5.53;2.00;;;20.30;99.90;;;;;;4897728;29;20821;-81
2022/06/12 06:59:50;;;;;;;5.47;1.70;;;20.30;99.90;;;;;;4897960;29;20201;-77
2022/06/12 07:02:16;;;;;;;9.67;2.63;;;20.40;99.90;;;;;;4897857;29;20229;-78
2022/06/12 07:04:42;;;;;;;6.97;1.60;;;20.40;99.90;;;;;;4897878;29;20473;-78
2022/06/12 07:07:08;;;;;;;6.07;2.60;;;20.40;99.90;;;;;;4897415;29;20180;-78
2022/06/12 07:10:18;;;;;;;12.00;2.30;;;20.50;99.90;;;;;;4898739;29;20216;-78
2022/06/12 07:12:44;;;;;;;6.63;2.37;;;20.50;99.90;;;;;;4895524;29;20441;-78
2022/06/12 07:15:11;;;;;;;7.33;1.93;;;20.60;99.90;;;;;;4898454;29;20432;-78
2022/06/12 07:17:37;;;;;;;8.30;2.20;;;20.50;99.90;;;;;;4898550;29;20287;-78
2022/06/12 07:20:03;;;;;;;9.73;2.37;;;20.60;99.90;;;;;;4898457;29;20779;-78
2022/06/12 07:22:28;;;;;;;8.60;2.10;;;20.60;99.90;;;;;;4898340;29;20811;-78
2022/06/12 07:24:54;;;;;;;6.27;2.63;;;20.60;99.90;;;;;;4898465;29;20508;-78
2022/06/12 07:27:19;;;;;;;5.63;2.00;;;20.70;99.90;;;;;;4898248;29;20514;-78
2022/06/12 07:29:46;;;;;;;7.40;2.53;;;20.80;99.90;;;;;;4897680;29;20632;-77
2022/06/12 07:32:12;;;;;;;6.10;3.30;;;20.90;99.90;;;;;;4897961;29;20243;-77
2022/06/12 07:34:37;;;;;;;5.27;2.83;;;21.10;99.90;;;;;;4897176;29;20421;-77
2022/06/12 07:37:05;;;;;;;4.80;2.30;;;21.10;99.90;;;;;;4896819;29;20252;-77
2022/06/12 07:39:32;;;;;;;6.97;2.63;;;21.20;99.90;;;;;;4898169;29;20221;-77
2022/06/12 07:41:58;;;;;;;7.30;2.27;;;21.10;99.90;;;;;;4898246;29;20432;-78
2022/06/12 07:44:26;;;;;;;5.60;3.00;;;21.10;99.90;;;;;;4898065;29;21060;-77
2022/06/12 07:46:55;;;;;;;9.57;3.00;;;21.20;99.90;;;;;;4898070;29;20185;-78
2022/06/12 07:49:23;;;;;;;7.60;2.27;;;21.20;99.90;;;;;;4898053;29;20425;-77
2022/06/12 07:51:48;;;;;;;9.53;3.40;;;21.20;99.90;;;;;;4898131;29;20511;-77
2022/06/12 07:54:15;;;;;;;6.03;2.67;;;21.30;99.90;;;;;;4897934;29;20850;-77
2022/06/12 07:56:41;;;;;;;8.10;2.80;;;21.30;99.90;;;;;;4897912;29;20272;-77
2022/06/12 07:59:08;;;;;;;12.10;3.30;;;21.30;99.90;;;;;;4897893;29;20440;-77
2022/06/12 08:01:35;;;;;;;9.80;2.70;;;21.20;99.90;;;;;;4897920;29;20429;-77
2022/06/12 08:04:01;;;;;;;8.00;3.50;;;21.20;99.90;;;;;;4897960;29;20483;-77
2022/06/12 08:06:27;;;;;;;7.57;2.90;;;21.20;99.90;;;;;;4899757;29;20456;-78
2022/06/12 08:08:54;;;;;;;15.07;3.30;;;21.30;99.90;;;;;;4901820;29;20283;-80
2022/06/12 08:11:23;;;;;;;8.97;4.57;;;21.30;99.90;;;;;;4901753;29;20515;-78
2022/06/12 08:13:49;;;;;;;8.87;3.23;;;21.20;99.90;;;;;;4901595;29;20433;-79
2022/06/12 08:16:15;;;;;;;9.70;3.00;;;21.10;99.90;;;;;;4901666;29;20515;-81
2022/06/12 08:18:41;;;;;;;11.30;3.60;;;21.20;99.90;;;;;;4900796;29;20464;-78
2022/06/12 08:21:11;;;;;;;8.70;2.90;;;21.30;99.90;;;;;;4900204;29;20199;-81
2022/06/12 08:23:44;;;;;;;12.60;3.17;;;21.30;99.90;;;;;;4914745;29;20176;-78
2022/06/12 08:26:27;;;;;;;10.47;3.90;;;21.40;99.90;;;;;;4916964;29;20927;-79
2022/06/12 08:28:57;;;;;;;7.57;3.07;;;21.60;99.90;;;;;;4919537;29;20463;-79
2022/06/12 08:31:30;;;;;;;12.20;3.33;;;21.70;99.90;;;;;;4919169;29;21038;-79
2022/06/12 08:34:00;;;;;;;6.97;2.67;;;21.60;99.90;;;;;;4919506;29;20464;-81
2022/06/12 08:36:26;;;;;;;10.90;3.80;;;21.70;99.90;;;;;;4919206;29;20467;-80
2022/06/12 08:38:52;;;;;;;8.93;2.93;;;21.80;99.90;;;;;;4919286;29;20439;-82
2022/06/12 08:41:47;;;;;;;8.37;2.90;;;21.80;99.90;;;;;;4919056;29;20817;-79
2022/06/12 08:44:21;;;;;;;6.00;3.03;;;21.90;99.90;;;;;;4919181;29;20423;-79
2022/06/12 08:47:11;;;;;;;8.50;3.00;;;21.80;99.90;;;;;;4919234;29;20437;-79
2022/06/12 08:49:40;;;;;;;5.70;2.10;;;22.00;99.90;;;;;;4919061;29;20427;-79
2022/06/12 08:52:17;;;;;;;8.97;2.77;;;22.00;99.90;;;;;;4918969;29;20430;-79
2022/06/12 08:54:59;;;;;;;8.40;2.67;;;22.10;99.90;;;;;;4919096;29;20439;-78
2022/06/12 08:57:46;;;;;;;8.20;2.53;;;22.10;99.90;;;;;;4918875;29;20895;-77
2022/06/12 09:00:15;;;;;;;8.47;2.47;;;22.10;99.40;;;;;;4918635;29;20424;-77
2022/06/12 09:02:43;;;;;;;4.07;2.23;;;22.10;99.90;;;;;;4918845;29;20464;-76
2022/06/12 09:05:13;;;;;;;6.40;2.10;;;22.10;96.80;;;;;;4918929;29;20831;-76
2022/06/12 09:08:09;;;;;;;8.33;2.47;;;22.10;95.40;;;;;;4918779;29;20435;-76
2022/06/12 09:10:45;;;;;;;4.57;2.60;;;22.10;96.40;;;;;;4918622;29;20949;-76
2022/06/12 09:13:15;;;;;;;10.23;2.83;;;22.10;98.50;;;;;;4918474;29;20423;-76
2022/06/12 09:15:58;;;;;;;9.73;3.47;;;22.30;98.00;;;;;;4918423;29;20482;-77
2022/06/12 09:18:47;;;;;;;5.57;2.13;;;22.30;97.00;;;;;;4918664;29;20435;-73
2022/06/12 09:21:29;;;;;;;6.67;2.37;;;22.40;97.80;;;;;;4918544;29;20455;-77
2022/06/12 09:24:18;;;;;;;4.40;2.60;;;22.50;98.50;;;;;;4918284;29;20911;-81
2022/06/12 09:27:02;;;;;;;5.03;2.40;;;22.50;97.10;;;;;;4918602;29;20792;-78
2022/06/12 09:29:42;;;;;;;6.60;2.00;;;22.50;94.10;;;;;;4918254;29;20431;-71
2022/06/12 09:32:35;;;;;;;10.77;3.03;;;22.50;94.20;;;;;;4917812;29;20511;-72
2022/06/12 09:35:24;;;;;;;9.00;2.67;;;22.40;95.40;;;;;;4919114;29;20428;-72
2022/06/12 09:40:51;;;;;;;3.47;1.80;;;22.30;91.90;;;;;;4918998;29;20460;-72
2022/06/12 09:43:30;;;;;;;3.67;2.07;;;22.40;93.80;;;;;;4918978;29;20798;-72
2022/06/12 09:46:26;;;;;;;8.93;2.40;;;22.50;92.80;;;;;;4919058;29;20435;-72
2022/06/12 09:49:29;;;;;;;5.60;2.37;;;22.40;93.60;;;;;;4918986;29;20443;-72
2022/06/12 09:52:09;;;;;;;4.80;2.00;;;22.60;92.40;;;;;;4918928;29;20420;-71
2022/06/12 09:54:44;;;;;;;5.63;1.53;;;22.70;81.50;;;;;;4918825;29;20495;-72
2022/06/12 09:57:31;;;;;;;7.27;4.90;;;22.50;82.50;;;;;;4918629;29;20481;-71
2022/06/12 10:00:05;;;;;;;2.97;1.50;;;22.60;83.60;;;;;;4918728;29;20938;-72
2022/06/12 10:02:43;;;;;;;4.47;1.50;;;22.70;81.90;;;;;;4918677;29;20451;-72
2022/06/12 10:05:16;;;;;;;3.40;1.67;;;22.70;76.40;;;;;;4918385;29;20434;-72
2022/06/12 10:07:50;;;;;;;4.70;1.00;;;22.80;78.60;;;;;;4918657;29;20911;-72
2022/06/12 10:10:30;;;;;;;1.30;1.00;;;22.80;73.70;;;;;;4918419;29;20436;-72
2022/06/12 10:13:05;;;;;;;2.20;0.80;;;22.90;70.10;;;;;;4918567;29;20783;-72
2022/06/12 10:15:37;;;;;;;2.07;1.00;;;22.90;74.20;;;;;;4918572;29;20494;-72
2022/06/12 10:18:14;;;;;;;1.47;1.17;;;23.00;68.80;;;;;;4918442;29;20577;-72
2022/06/12 10:20:45;;;;;;;3.53;1.07;;;23.00;64.70;;;;;;4918374;29;20424;-72
2022/06/12 10:23:11;;;;;;;4.00;1.00;;;23.10;63.10;;;;;;4918210;29;20447;-72
2022/06/12 10:25:40;;;;;;;2.27;1.50;;;23.20;66.50;;;;;;4918346;29;20510;-72
2022/06/12 10:28:21;;;;;;;2.43;1.00;;;23.20;62.90;;;;;;4917962;29;20186;-72
2022/06/12 10:30:59;;;;;;;2.27;1.20;;;23.30;61.40;;;;;;4918059;29;20435;-72
2022/06/12 10:33:47;;;;;;;1.87;1.00;;;23.40;65.20;;;;;;4918056;29;20533;-72
2022/06/12 10:36:18;;;;;;;2.70;1.10;;;23.40;62.00;;;;;;4917432;29;20479;-72
2022/06/12 10:38:43;;;;;;;3.40;1.40;;;23.40;63.20;;;;;;4917955;29;20436;-72
2022/06/12 10:41:27;;;;;;;4.30;2.00;;;23.50;63.60;;;;;;4917964;29;20434;-72
2022/06/12 10:43:56;;;;;;;4.10;1.53;;;23.50;64.40;;;;;;4917879;29;20191;-72
2022/06/12 10:46:27;;;;;;;3.33;1.27;;;23.50;62.50;;;;;;4917908;29;20459;-72
2022/06/12 10:49:17;;;;;;;4.23;2.07;;;23.60;64.90;;;;;;4917901;29;20436;-71
2022/06/12 10:51:44;;;;;;;4.23;2.23;;;23.60;68.00;;;;;;4917808;29;20444;-72
2022/06/12 10:54:14;;;;;;;2.80;1.30;;;23.70;66.10;;;;;;4917743;29;20788;-72
2022/06/12 10:57:09;;;;;;;5.70;1.67;;;23.70;63.20;;;;;;4917665;29;20592;-72
2022/06/12 10:59:37;;;;;;;2.20;1.40;;;23.90;64.80;;;;;;4917725;29;20420;-72
2022/06/12 11:02:24;;;;;;;1.97;1.20;;;23.90;67.80;;;;;;4917582;29;20430;-71
2022/06/12 11:05:08;;;;;;;5.17;1.90;;;24.10;61.50;;;;;;4917682;29;20435;-72
2022/06/12 11:07:34;;;;;;;5.60;2.67;;;24.00;67.60;;;;;;4917508;29;20416;-72
2022/06/12 11:10:28;;;;;;;6.00;1.80;;;24.00;68.40;;;;;;4917389;29;20435;-72
2022/06/12 11:13:32;;;;;;;3.40;1.70;;;24.10;72.70;;;;;;4917484;29;20271;-72
2022/06/12 11:16:35;;;;;;;6.47;2.07;;;24.20;67.60;;;;;;4840708;29;20839;-72
2022/06/12 11:19:32;;;;;;;8.23;2.30;;;24.20;64.50;;;;;;4840685;29;20527;-72
2022/06/12 11:22:19;;;;;;;6.57;2.33;;;24.10;68.00;;;;;;4860538;29;20446;-72
2022/06/12 11:25:04;;;;;;;9.60;2.50;;;24.20;70.10;;;;;;4917142;29;20450;-72
2022/06/12 11:27:54;;;;;;;3.50;1.60;;;24.30;70.70;;;;;;4917293;29;20468;-72
2022/06/12 11:30:32;;;;;;;8.00;2.27;;;24.60;68.20;;;;;;4916999;29;20427;-72
2022/06/12 11:33:10;;;;;;;4.93;2.20;;;24.60;67.40;;;;;;4917141;29;20450;-72
2022/06/12 11:35:54;;;;;;;7.40;2.30;;;24.80;64.10;;;;;;4917148;29;20422;-72
2022/06/12 11:38:37;;;;;;;6.13;2.40;;;24.70;66.10;;;;;;4917107;29;20439;-72
2022/06/12 11:41:24;;;;;;;6.83;3.03;;;24.90;64.00;;;;;;4916370;29;20522;-72
2022/06/12 11:43:59;;;;;;;9.20;2.27;;;24.80;63.60;;;;;;4917002;29;20424;-72
2022/06/12 11:46:32;;;;;;;4.80;2.37;;;24.90;66.90;;;;;;4916946;29;20494;-72
2022/06/12 11:49:28;;;;;;;6.03;3.10;;;24.90;66.40;;;;;;4916890;29;20428;-72
2022/06/12 11:52:05;;;;;;;7.87;2.80;;;24.80;65.90;;;;;;4916965;29;20440;-72
2022/06/12 11:54:52;;;;;;;2.93;1.60;;;24.60;67.90;;;;;;4916943;29;20424;-72
2022/06/12 11:57:55;;;;;;;6.57;1.77;;;24.60;70.80;;;;;;4916844;29;20479;-72
2022/06/12 12:00:27;;;;;;;6.17;2.40;;;24.70;62.20;;;;;;4916868;29;20434;-73
2022/06/12 12:03:29;;;;;;;6.50;2.60;;;24.80;63.60;;;;;;4916796;29;20432;-72
2022/06/12 12:05:54;;;;;;;6.90;1.70;;;25.00;62.30;;;;;;4916833;29;20432;-72
2022/06/12 12:08:48;;;;;;;4.10;3.10;;;25.10;63.70;;;;;;4916698;29;20785;-72
2022/06/12 12:11:17;;;;;;;10.93;3.03;;;25.10;68.90;;;;;;4916700;29;20212;-72
2022/06/12 12:13:50;;;;;;;4.43;2.20;;;25.30;62.60;;;;;;4916787;29;20424;-72
2022/06/12 12:16:27;;;;;;;8.90;2.40;;;25.40;63.50;;;;;;4912393;29;20460;-72
2022/06/12 12:18:59;;;;;;;6.13;2.07;;;25.70;62.70;;;;;;4905101;29;20939;-72
2022/06/12 12:21:54;;;;;;;5.10;2.17;;;25.90;58.80;;;;;;4903192;29;20516;-73
2022/06/12 12:24:26;;;;;;;10.63;2.50;;;25.90;59.20;;;;;;4906791;29;20432;-73
2022/06/12 12:26:56;;;;;;;11.83;2.27;;;26.00;59.60;;;;;;4906025;29;20429;-71
2022/06/12 12:29:29;;;;;;;5.17;2.03;;;26.00;60.20;;;;;;4902233;29;20540;-72
2022/06/12 12:31:56;;;;;;;8.10;2.30;;;26.00;59.00;;;;;;4904977;29;20459;-73
2022/06/12 12:34:24;;;;;;;7.55;2.10;;;25.70;59.40;;;;;;4901155;29;20500;-72
2022/06/12 12:42:32;;;;;;;4.70;2.13;;;25.30;62.80;;;;;;4916596;29;20487;-73
2022/06/12 12:45:18;;;;;;;9.43;3.10;;;25.00;67.20;;;;;;4916439;29;20431;-73
2022/06/12 12:47:44;;;;;;;7.07;2.50;;;25.00;70.20;;;;;;4916324;29;20768;-74
2022/06/12 12:50:15;;;;;;;11.97;2.90;;;25.00;65.50;;;;;;4916391;29;20452;-74
2022/06/12 12:52:46;;;;;;;8.40;2.20;;;25.10;62.30;;;;;;4918454;29;20210;-75
2022/06/12 12:55:31;;;;;;;8.63;4.23;;;25.10;62.80;;;;;;4920164;29;20828;-74
2022/06/12 12:58:00;;;;;;;7.73;2.83;;;25.00;63.80;;;;;;4919824;29;20479;-74
2022/06/12 13:00:33;;;;;;;5.50;3.00;;;24.80;66.30;;;;;;4919833;29;20423;-74
2022/06/12 13:03:25;;;;;;;16.17;2.83;;;24.50;64.00;;;;;;4919865;29;20436;-74
2022/06/12 13:05:59;;;;;;;6.20;2.97;;;24.40;70.00;;;;;;4897589;29;20803;-74
2022/06/12 13:08:50;;;;;;;7.27;2.40;;;24.30;69.20;;;;;;4919596;29;20426;-74
2022/06/12 13:11:36;;;;;;;6.80;2.20;;;24.30;71.90;;;;;;4908611;29;20966;-73
2022/06/12 13:14:22;;;;;;;6.37;2.53;;;24.40;68.70;;;;;;4910557;29;20539;-73
2022/06/12 13:17:17;;;;;;;4.97;3.43;;;24.60;68.90;;;;;;4907253;29;20468;-73
2022/06/12 13:20:12;;;;;;;8.23;3.90;;;24.70;75.30;;;;;;4904435;29;20455;-72
2022/06/12 13:22:54;;;;;;;14.07;4.03;;;24.60;72.40;;;;;;4913534;29;20762;-74
2022/06/12 13:25:24;;;;;;;7.60;3.40;;;24.90;78.30;;;;;;4911375;29;20787;-75
2022/06/12 13:27:58;;;;;;;7.27;2.20;;;25.20;80.40;;;;;;4909387;29;20435;-74
2022/06/12 13:30:25;;;;;;;15.10;4.03;;;25.40;69.60;;;;;;4900437;29;20436;-73
2022/06/12 13:32:51;;;;;;;7.60;3.47;;;25.60;73.30;;;;;;4906769;29;20480;-74
2022/06/12 13:35:29;;;;;;;11.93;3.17;;;25.70;70.50;;;;;;4908655;29;20435;-74
2022/06/12 13:37:57;;;;;;;6.80;2.27;;;25.80;68.70;;;;;;4908870;29;20575;-74
2022/06/12 13:40:38;;;;;;;5.27;2.67;;;25.90;66.20;;;;;;4905072;29;20710;-74
2022/06/12 13:43:20;;;;;;;6.60;2.90;;;26.10;66.30;;;;;;4904979;29;20492;-74
2022/06/12 13:45:57;;;;;;;7.40;2.90;;;26.30;72.40;;;;;;4899728;29;20853;-73
2022/06/12 13:48:26;;;;;;;6.43;3.47;;;26.20;67.00;;;;;;4899342;29;20424;-75
2022/06/12 13:51:23;;;;;;;7.63;2.93;;;26.30;70.30;;;;;;4899446;29;20451;-74
2022/06/12 13:53:57;;;;;;;8.50;2.73;;;26.30;65.80;;;;;;4883576;29;20903;-74
2022/06/12 13:56:29;;;;;;;7.90;2.63;;;26.10;64.40;;;;;;4917878;29;20498;-73
2022/06/12 13:58:57;;;;;;;8.20;3.70;;;25.80;63.10;;;;;;4909343;29;20455;-74
2022/06/12 14:01:30;;;;;;;5.13;2.53;;;25.70;66.00;;;;;;4904395;29;20437;-74
2022/06/12 14:04:04;;;;;;;3.93;2.23;;;25.50;68.10;;;;;;4905428;29;20437;-74
2022/06/12 14:06:34;;;;;;;8.17;2.47;;;25.50;68.40;;;;;;4907037;29;20432;-73
2022/06/12 14:09:05;;;;;;;4.73;2.20;;;25.50;65.90;;;;;;4914822;29;20434;-73
2022/06/12 14:11:32;;;;;;;6.37;2.43;;;25.60;66.40;;;;;;4917731;29;20428;-75
2022/06/12 14:13:58;;;;;;;8.63;2.70;;;25.60;66.10;;;;;;4917705;29;21010;-75
2022/06/12 14:16:27;;;;;;;10.83;2.97;;;25.50;65.30;;;;;;4899392;29;20563;-85
2022/06/12 14:19:03;;;;;;;7.90;3.40;;;25.50;65.50;;;;;;4898813;29;20452;-76
2022/06/12 14:21:40;;;;;;;5.43;2.53;;;25.30;66.30;;;;;;4898199;29;20566;-76
2022/06/12 14:24:14;;;;;;;6.63;3.57;;;25.30;68.20;;;;;;4903963;29;20888;-76
2022/06/12 14:26:43;;;;;;;5.90;2.70;;;25.20;68.30;;;;;;4916515;29;20435;-74
2022/06/12 14:29:29;;;;;;;7.50;3.20;;;25.00;68.20;;;;;;4909701;29;20935;-74
2022/06/12 14:32:19;;;;;;;8.87;3.37;;;24.90;67.50;;;;;;4905840;29;20471;-73
2022/06/12 14:35:01;;;;;;;8.70;3.00;;;25.00;69.20;;;;;;4901480;29;20528;-73
2022/06/12 14:37:31;;;;;;;4.37;2.40;;;25.10;70.00;;;;;;4898570;29;20476;-75
2022/06/12 14:39:58;;;;;;;7.40;3.10;;;25.30;70.80;;;;;;4898975;29;20459;-74
2022/06/12 14:42:25;;;;;;;5.57;2.77;;;25.40;70.30;;;;;;4898017;29;20786;-75
2022/06/12 14:44:51;;;;;;;4.90;2.33;;;25.40;73.00;;;;;;4897477;29;20457;-76
2022/06/12 14:47:19;;;;;;;5.63;2.63;;;25.50;68.90;;;;;;4898750;29;20429;-75
2022/06/12 14:49:47;;;;;;;9.13;3.57;;;25.70;66.90;;;;;;4897883;29;20424;-76
2022/06/12 14:52:12;;;;;;;7.07;2.80;;;25.90;69.60;;;;;;4897134;29;20859;-77
2022/06/12 14:54:38;;;;;;;11.17;2.87;;;26.00;65.30;;;;;;4896651;29;20429;-77
2022/06/12 14:57:11;;;;;;;7.00;2.70;;;26.10;62.20;;;;;;4897189;29;20565;-77
2022/06/12 14:59:36;;;;;;;6.63;3.13;;;26.30;61.30;;;;;;4896866;29;20259;-75
2022/06/12 15:02:09;;;;;;;8.13;3.17;;;26.10;62.60;;;;;;4896912;29;20520;-72
2022/06/12 15:04:35;;;;;;;6.20;2.87;;;25.70;62.30;;;;;;4894315;29;20192;-72
2022/06/12 15:07:00;;;;;;;9.20;3.00;;;25.50;66.40;;;;;;4896924;29;20809;-76
2022/06/12 15:09:26;;;;;;;5.63;2.97;;;25.50;66.60;;;;;;4896429;29;20180;-74
2022/06/12 15:11:51;;;;;;;7.20;2.70;;;25.30;64.10;;;;;;4903206;29;20180;-71
2022/06/12 15:14:19;;;;;;;5.10;2.60;;;25.00;64.50;;;;;;4896363;29;20179;-73
2022/06/12 15:16:45;;;;;;;5.17;2.50;;;24.90;65.60;;;;;;4896436;29;20620;-72
2022/06/12 15:19:10;;;;;;;6.27;2.93;;;24.90;63.40;;;;;;4896494;29;20439;-73
2022/06/12 15:21:40;;;;;;;5.07;2.53;;;24.80;64.30;;;;;;4896751;29;20286;-73
2022/06/12 15:24:12;;;;;;;4.20;2.53;;;24.80;66.30;;;;;;4896264;29;20188;-74
2022/06/12 15:32:11;;;;;;;5.43;2.60;;;25.30;67.40;;;;;;4893624;29;20526;-71
2022/06/12 15:34:36;;;;;;;4.63;2.73;;;25.30;65.10;;;;;;4889193;29;20484;-72
2022/06/12 15:37:02;;;;;;;8.83;2.87;;;25.30;63.80;;;;;;4891369;29;20617;-72
2022/06/12 15:39:27;;;;;;;9.23;3.37;;;25.00;63.10;;;;;;4891113;29;20230;-71
2022/06/12 15:41:53;;;;;;;4.90;2.83;;;24.80;62.80;;;;;;4888206;29;20181;-73
2022/06/12 15:44:19;;;;;;;7.87;2.57;;;24.80;66.40;;;;;;4887896;29;20554;-73
2022/06/12 15:46:44;;;;;;;7.23;2.77;;;24.70;63.10;;;;;;4888953;29;20184;-73
2022/06/12 15:49:16;;;;;;;12.53;3.37;;;24.80;66.40;;;;;;4887754;29;20548;-73
2022/06/12 15:51:43;;;;;;;4.57;3.00;;;24.90;67.30;;;;;;4890711;29;20570;-72
2022/06/12 15:54:13;;;;;;;5.90;2.60;;;25.00;66.50;;;;;;4888572;29;20515;-74
2022/06/12 15:56:39;;;;;;;5.40;2.50;;;25.10;65.50;;;;;;4892086;29;20488;-72
2022/06/12 15:59:04;;;;;;;5.53;2.53;;;25.00;63.50;;;;;;4888489;29;20456;-71
2022/06/12 16:01:30;;;;;;;4.70;2.10;;;25.00;62.80;;;;;;4900846;29;20196;-71
2022/06/12 16:03:57;;;;;;;10.70;2.63;;;24.80;61.60;;;;;;4890954;29;20184;-72
2022/06/12 16:06:23;;;;;;;8.73;2.67;;;24.60;62.50;;;;;;4895570;29;20948;-72
2022/06/12 16:08:50;;;;;;;3.70;2.17;;;24.50;62.00;;;;;;4898777;29;20436;-73
2022/06/12 16:11:15;;;;;;;7.40;2.53;;;24.30;62.90;;;;;;4907134;29;20447;-72
2022/06/12 16:13:41;;;;;;;3.00;1.93;;;24.30;63.30;;;;;;4908870;29;20845;-73
2022/06/12 16:16:07;;;;;;;5.57;2.43;;;24.30;66.40;;;;;;4896751;29;20198;-73
2022/06/12 16:18:33;;;;;;;8.23;2.57;;;24.30;63.20;;;;;;4896762;29;20177;-72
2022/06/12 16:20:59;;;;;;;6.60;2.80;;;24.30;63.30;;;;;;4897265;29;20181;-72
2022/06/12 16:23:24;;;;;;;7.97;2.90;;;24.30;64.30;;;;;;4897610;29;20545;-72
2022/06/12 16:25:50;;;;;;;5.53;2.97;;;24.30;63.30;;;;;;4896173;29;20299;-72
2022/06/12 16:28:17;;;;;;;3.33;2.30;;;24.30;62.60;;;;;;4900376;29;20656;-72
2022/06/12 16:30:45;;;;;;;7.10;1.87;;;24.10;64.20;;;;;;4901267;29;20176;-71
2022/06/12 16:33:13;;;;;;;5.40;2.23;;;24.00;65.70;;;;;;4900959;29;20432;-71
2022/06/12 16:35:39;;;;;;;7.23;2.50;;;24.00;65.90;;;;;;4901098;29;20433;-71
2022/06/12 16:38:05;;;;;;;4.90;2.47;;;24.10;66.60;;;;;;4897924;29;20484;-71